Trail, OR (97541)

4:04 PM PST on November 23, 2014 (GMT -0800)
Lost Creek Lake | Change Station
CLOSE
Current Station
Personal Weather Station
Location: Trail, OR
Elevation: 1580 ft
Nearby Weather Stations

Elev 1580 ft 42.66 °N, 122.69 °W | Updated 1 minute ago

Partly Cloudy
Partly Cloudy
48.3 °F
Feels Like 48 °F
N
3.0
Wind Variable Wind from SE
Gusts 6.0 mph

Today
High -- | Low -- °F
--% Chance of Precip.
Yesterday
High -- | Low -- °F
Precip. -- in
7:12 AM 4:42 PM
Waxing Crescent, 3% visible
Pressure 30.38 in
Visibility 10.0 miles
Clouds Scattered Clouds 1400 ft
Mostly Cloudy 12000 ft
Windchill 48 °F
Dew Point 41 °F
Humidity 77%
Rainfall 0.00 in
Snow Depth Not available.
UV 0 out of 12
Pollen .30 out of 12
Air Quality Not available.
Flu Activity Not available.
METAR KMFR 232353Z 10004KT 10SM SCT014 BKN120 08/04 A3036 RMK AO2 SLP286 T00780044 10083 20061 56014

More Conditions Fewer Conditions

Pressure 30.38 in
Visibility 10.0 miles
Clouds Scattered Clouds 1400 ft
Mostly Cloudy 12000 ft
Windchill 48 °F
Dew Point 41 °F
Humidity 77%
Rainfall 0.00 in
Snow Depth Not available.
UV 0 out of 12
Pollen .30 out of 12
Air Quality Not available.
Flu Activity Not available.
METAR KMFR 232353Z 10004KT 10SM SCT014 BKN120 08/04 A3036 RMK AO2 SLP286 T00780044 10083 20061 56014

More Conditions Fewer Conditions

10-Day Weather Forecast

Almanac

Astronomy

Nov. 23, 2014 Rise Set
Actual Time
Civil Twilight
Nautical Twilight
Astronomical Twilight
Moon
Length of Visible Light
Length of Day
Tomorrow will be .
, % of the Moon is Illuminated

Today's Extremes

State Highs State Lows

Community

WunderPhotos

Upload Photos

1,773,215 photos uploaded!

WunderBlogs® & News

Nearby

Air Quality

  Air Quality AQ Index Pollutant
Not available.

Snow Depth

Station Depth Elevation

Earthquake Activity

City Distance Mag. Time & Date
Minimum magnitude displayed is 2.5.

Coastal Water Temperatures

Place Temperature

Nearby Weather Stations